Time;durP1;ratioP1;P1;durP2;ratioP2;P2;SDS_P1;SDS_P2;PMS_P1;PMS_P2;Temp;Humidity;BMP_temperature;BMP_pressure;BME280_temperature;BME280_humidity;BME280_pressure;Samples;Min_cycle;Max_cycle;Signal;HPM_P1;HPM_P2
2022/04/16 00:01:03;;;;;;;0.70;0.70;;;;;;;;;;5070313;28;20201;-76
2022/04/16 00:03:31;;;;;;;0.80;0.70;;;;;;;;;;5074693;28;20177;-76
2022/04/16 00:06:03;;;;;;;0.70;0.60;;;;;;;;;;5056344;28;20214;-75
2022/04/16 00:08:29;;;;;;;0.70;0.63;;;;;;;;;;5073918;28;20197;-76
2022/04/16 00:10:57;;;;;;;0.70;0.70;;;;;;;;;;5073254;28;20683;-76
2022/04/16 00:13:24;;;;;;;0.70;0.60;;;;;;;;;;5072283;28;20239;-75
2022/04/16 00:15:52;;;;;;;0.70;0.70;;;;;;;;;;5074143;28;20423;-76
2022/04/16 00:18:20;;;;;;;0.70;0.60;;;;;;;;;;5073517;28;20186;-76
2022/04/16 00:20:51;;;;;;;0.70;0.60;;;;;;;;;;5074033;28;20581;-76
2022/04/16 00:23:20;;;;;;;0.70;0.60;;;;;;;;;;5074268;28;20189;-76
2022/04/16 00:25:47;;;;;;;0.70;0.70;;;;;;;;;;5072600;28;20692;-75
2022/04/16 00:28:14;;;;;;;0.80;0.70;;;;;;;;;;5071763;28;20244;-76
2022/04/16 00:30:42;;;;;;;0.70;0.60;;;;;;;;;;5074266;28;20183;-76
2022/04/16 00:33:10;;;;;;;0.70;0.60;;;;;;;;;;5056179;28;20246;-76
2022/04/16 00:35:37;;;;;;;0.70;0.60;;;;;;;;;;5071888;28;20181;-76
2022/04/16 00:38:04;;;;;;;0.70;0.60;;;;;;;;;;5068164;28;20539;-76
2022/04/16 00:40:32;;;;;;;0.80;0.70;;;;;;;;;;5072505;28;20583;-76
2022/04/16 00:43:00;;;;;;;0.70;0.60;;;;;;;;;;5055640;28;20200;-76
2022/04/16 00:45:30;;;;;;;0.70;0.60;;;;;;;;;;5071706;28;20180;-76
2022/04/16 00:47:59;;;;;;;0.70;0.63;;;;;;;;;;5071966;28;20242;-75
2022/04/16 00:50:28;;;;;;;0.70;0.60;;;;;;;;;;5053175;28;20457;-76
2022/04/16 00:52:58;;;;;;;0.80;0.80;;;;;;;;;;5072587;28;20165;-76
2022/04/16 00:55:28;;;;;;;0.70;0.70;;;;;;;;;;5072548;28;20177;-76
2022/04/16 00:57:58;;;;;;;0.70;0.70;;;;;;;;;;5073128;28;20161;-76
2022/04/16 01:00:27;;;;;;;0.70;0.60;;;;;;;;;;5072194;28;20204;-76
2022/04/16 01:02:56;;;;;;;0.75;0.70;;;;;;;;;;5072660;28;20206;-76
2022/04/16 01:05:27;;;;;;;0.70;0.60;;;;;;;;;;5075623;28;20187;-76
2022/04/16 01:07:58;;;;;;;0.70;0.60;;;;;;;;;;5071951;28;20204;-76
2022/04/16 01:10:26;;;;;;;0.70;0.60;;;;;;;;;;5043665;28;20184;-75
2022/04/16 01:12:54;;;;;;;0.70;0.60;;;;;;;;;;5075504;28;20526;-76
2022/04/16 01:15:23;;;;;;;0.80;0.80;;;;;;;;;;5076525;28;20668;-76
2022/04/16 01:17:54;;;;;;;0.70;0.70;;;;;;;;;;5076540;28;20188;-76
2022/04/16 01:20:25;;;;;;;0.70;0.70;;;;;;;;;;5059981;28;20200;-75
2022/04/16 01:22:56;;;;;;;0.70;0.60;;;;;;;;;;5058164;28;20221;-75
2022/04/16 01:25:27;;;;;;;0.73;0.70;;;;;;;;;;5056427;28;20196;-76
2022/04/16 01:27:54;;;;;;;0.70;0.60;;;;;;;;;;5056781;28;20692;-76
2022/04/16 01:30:23;;;;;;;0.80;0.70;;;;;;;;;;5073572;28;20197;-76
2022/04/16 01:32:52;;;;;;;0.70;0.60;;;;;;;;;;5073600;28;20683;-75
2022/04/16 01:35:21;;;;;;;0.70;0.60;;;;;;;;;;5075199;28;20243;-76
2022/04/16 01:37:50;;;;;;;0.70;0.60;;;;;;;;;;5074575;28;20219;-75
2022/04/16 01:40:25;;;;;;;0.70;0.60;;;;;;;;;;5077430;28;20201;-75
2022/04/16 01:42:56;;;;;;;0.70;0.60;;;;;;;;;;5075833;28;20261;-76
2022/04/16 01:45:24;;;;;;;0.70;0.60;;;;;;;;;;5052867;28;20193;-75
2022/04/16 01:47:52;;;;;;;0.77;0.70;;;;;;;;;;5055618;28;20213;-75
2022/04/16 01:50:20;;;;;;;0.70;0.60;;;;;;;;;;5055274;28;20185;-75
2022/04/16 01:52:47;;;;;;;0.70;0.70;;;;;;;;;;5054960;28;20292;-76
2022/04/16 01:55:15;;;;;;;0.70;0.70;;;;;;;;;;5055273;28;20194;-76
2022/04/16 01:57:46;;;;;;;0.70;0.70;;;;;;;;;;5055609;28;20197;-75
2022/04/16 02:00:20;;;;;;;0.70;0.70;;;;;;;;;;5055993;28;20208;-76
2022/04/16 02:02:47;;;;;;;0.70;0.70;;;;;;;;;;5055335;28;20247;-76
2022/04/16 02:05:13;;;;;;;0.70;0.68;;;;;;;;;;5055767;28;20630;-76
2022/04/16 02:07:42;;;;;;;0.70;0.68;;;;;;;;;;5056056;28;20224;-75
2022/04/16 02:10:09;;;;;;;0.70;0.70;;;;;;;;;;5054560;28;20185;-76
2022/04/16 02:12:36;;;;;;;0.70;0.70;;;;;;;;;;5055512;28;20221;-76
2022/04/16 02:15:06;;;;;;;0.70;0.60;;;;;;;;;;5055927;28;20177;-75
2022/04/16 02:17:33;;;;;;;0.75;0.75;;;;;;;;;;5055524;28;20592;-76
2022/04/16 02:20:00;;;;;;;0.70;0.70;;;;;;;;;;5056112;28;20257;-75
2022/04/16 02:22:27;;;;;;;0.80;0.70;;;;;;;;;;5054887;28;20615;-75
2022/04/16 02:24:53;;;;;;;0.70;0.60;;;;;;;;;;5054678;28;20688;-75
2022/04/16 02:27:20;;;;;;;0.70;0.70;;;;;;;;;;5055905;28;20193;-76
2022/04/16 02:29:47;;;;;;;0.70;0.60;;;;;;;;;;5077073;28;20185;-75
2022/04/16 02:32:20;;;;;;;0.70;0.70;;;;;;;;;;5053154;28;20190;-75
2022/04/16 02:34:47;;;;;;;0.70;0.65;;;;;;;;;;5066219;28;20193;-76
2022/04/16 02:37:13;;;;;;;0.82;0.82;;;;;;;;;;5075160;28;20260;-75
2022/04/16 02:39:40;;;;;;;0.70;0.60;;;;;;;;;;5076463;28;20200;-75
2022/04/16 02:42:07;;;;;;;0.70;0.60;;;;;;;;;;5075877;28;20650;-75
2022/04/16 02:47:20;;;;;;;0.70;0.70;;;;;;;;;;5075827;28;20200;-76
2022/04/16 02:49:47;;;;;;;0.70;0.60;;;;;;;;;;5045707;28;20213;-75
2022/04/16 02:52:13;;;;;;;0.80;0.80;;;;;;;;;;5054893;28;20210;-76
2022/04/16 02:54:41;;;;;;;0.80;0.70;;;;;;;;;;5054202;28;20564;-76
2022/04/16 02:57:08;;;;;;;0.70;0.70;;;;;;;;;;5054077;28;20201;-76
2022/04/16 02:59:35;;;;;;;0.70;0.70;;;;;;;;;;5054929;28;20191;-76
2022/04/16 03:02:05;;;;;;;0.70;0.65;;;;;;;;;;5054685;28;20186;-75
2022/04/16 03:04:34;;;;;;;0.70;0.65;;;;;;;;;;5054935;28;20193;-75
2022/04/16 03:07:01;;;;;;;0.70;0.70;;;;;;;;;;5066529;28;20220;-75
2022/04/16 03:09:28;;;;;;;0.70;0.70;;;;;;;;;;5072531;28;20219;-75
2022/04/16 03:11:55;;;;;;;1.40;1.30;;;;;;;;;;5075340;28;20181;-76
2022/04/16 03:19:55;;;;;;;0.80;0.80;;;;;;;;;;5074571;28;20201;-76
2022/04/16 03:22:22;;;;;;;0.70;0.68;;;;;;;;;;5069426;28;20224;-76
2022/04/16 03:24:49;;;;;;;0.70;0.70;;;;;;;;;;5070685;28;20192;-77
2022/04/16 03:27:16;;;;;;;0.70;0.70;;;;;;;;;;5069198;28;20212;-75
2022/04/16 03:29:43;;;;;;;0.80;0.80;;;;;;;;;;5072506;28;20229;-77
2022/04/16 03:32:09;;;;;;;0.70;0.70;;;;;;;;;;5074840;28;20585;-78
2022/04/16 03:34:37;;;;;;;0.70;0.70;;;;;;;;;;5073462;28;20220;-76
2022/04/16 03:37:05;;;;;;;0.88;0.88;;;;;;;;;;5072908;28;20220;-76
2022/04/16 03:39:32;;;;;;;0.73;0.70;;;;;;;;;;5058795;28;20680;-76
2022/04/16 03:41:59;;;;;;;0.70;0.70;;;;;;;;;;5051671;28;20192;-77
2022/04/16 03:44:25;;;;;;;0.70;0.70;;;;;;;;;;5072856;28;20181;-74
2022/04/16 03:46:53;;;;;;;0.80;0.80;;;;;;;;;;5070947;28;20196;-75
2022/04/16 03:49:22;;;;;;;0.70;0.68;;;;;;;;;;5074499;28;20583;-76
2022/04/16 03:51:48;;;;;;;0.70;0.60;;;;;;;;;;5072935;28;20227;-75
2022/04/16 04:00:00;;;;;;;0.70;0.60;;;;;;;;;;5072014;28;20279;-75
2022/04/16 04:02:38;;;;;;;0.80;0.80;;;;;;;;;;5073866;28;20189;-75
2022/04/16 04:05:06;;;;;;;0.70;0.70;;;;;;;;;;5073333;28;20227;-75
2022/04/16 04:07:33;;;;;;;0.70;0.70;;;;;;;;;;5072693;28;20209;-75
2022/04/16 04:10:02;;;;;;;0.70;0.68;;;;;;;;;;5074307;28;20196;-75
2022/04/16 04:12:32;;;;;;;0.82;0.82;;;;;;;;;;5072534;28;20184;-75
2022/04/16 04:14:59;;;;;;;0.70;0.70;;;;;;;;;;5073893;28;20695;-75
2022/04/16 04:17:26;;;;;;;0.70;0.60;;;;;;;;;;5066989;28;20231;-75
2022/04/16 04:19:52;;;;;;;0.80;0.80;;;;;;;;;;5052133;28;20217;-74
2022/04/16 04:22:19;;;;;;;0.70;0.60;;;;;;;;;;5052919;28;20604;-74
2022/04/16 04:24:46;;;;;;;0.70;0.70;;;;;;;;;;5069531;28;20170;-76
2022/04/16 04:27:14;;;;;;;0.80;0.80;;;;;;;;;;5054368;28;20216;-76
2022/04/16 04:29:41;;;;;;;0.70;0.60;;;;;;;;;;5045190;28;20270;-76
2022/04/16 04:32:08;;;;;;;0.73;0.70;;;;;;;;;;5073100;28;20280;-75
2022/04/16 04:34:35;;;;;;;0.90;0.90;;;;;;;;;;5073331;28;20199;-75
2022/04/16 04:37:26;;;;;;;0.80;0.80;;;;;;;;;;5072952;28;20215;-75
2022/04/16 04:39:53;;;;;;;0.70;0.65;;;;;;;;;;5071591;28;20258;-75
2022/04/16 04:42:25;;;;;;;0.70;0.70;;;;;;;;;;5072155;28;20177;-75
2022/04/16 04:44:53;;;;;;;0.70;0.70;;;;;;;;;;5072131;28;20173;-75
2022/04/16 04:47:20;;;;;;;0.80;0.80;;;;;;;;;;5073603;28;20173;-75
2022/04/16 04:49:47;;;;;;;0.70;0.70;;;;;;;;;;5053498;28;20318;-75
2022/04/16 04:52:19;;;;;;;0.70;0.70;;;;;;;;;;5069933;28;20213;-74
2022/04/16 04:54:46;;;;;;;0.70;0.68;;;;;;;;;;5069827;28;20346;-75
2022/04/16 04:57:16;;;;;;;0.80;0.80;;;;;;;;;;5072397;28;20212;-74
2022/04/16 04:59:44;;;;;;;0.82;0.82;;;;;;;;;;5071968;28;20189;-76
2022/04/16 05:02:10;;;;;;;0.80;0.80;;;;;;;;;;5072372;28;20235;-75
2022/04/16 05:04:37;;;;;;;0.70;0.60;;;;;;;;;;5070149;28;20181;-75
2022/04/16 05:07:05;;;;;;;0.70;0.70;;;;;;;;;;5053565;28;20213;-74
2022/04/16 05:09:31;;;;;;;0.70;0.60;;;;;;;;;;5053430;28;20198;-76
2022/04/16 05:12:00;;;;;;;0.90;0.90;;;;;;;;;;5053319;28;20201;-75
2022/04/16 05:14:27;;;;;;;0.80;0.80;;;;;;;;;;5050970;28;20585;-74
2022/04/16 05:16:55;;;;;;;0.70;0.70;;;;;;;;;;5069210;28;20649;-75
2022/04/16 05:19:22;;;;;;;0.77;0.70;;;;;;;;;;5071352;28;20188;-74
2022/04/16 05:21:48;;;;;;;0.68;0.60;;;;;;;;;;5068758;28;20212;-75
2022/04/16 05:24:15;;;;;;;0.70;0.70;;;;;;;;;;5071849;28;20196;-75
2022/04/16 05:26:42;;;;;;;0.70;0.60;;;;;;;;;;5072991;28;20189;-74
2022/04/16 05:29:09;;;;;;;0.70;0.60;;;;;;;;;;5072381;28;20205;-74
2022/04/16 05:31:36;;;;;;;0.70;0.60;;;;;;;;;;5071812;28;20193;-74
2022/04/16 05:34:20;;;;;;;0.70;0.60;;;;;;;;;;5072533;28;20284;-74
2022/04/16 05:36:48;;;;;;;0.70;0.70;;;;;;;;;;5072830;28;20752;-76
2022/04/16 05:39:15;;;;;;;0.70;0.70;;;;;;;;;;5070798;28;20547;-77
2022/04/16 05:41:42;;;;;;;0.70;0.65;;;;;;;;;;5071501;28;20224;-75
2022/04/16 05:44:10;;;;;;;0.70;0.70;;;;;;;;;;5071504;28;20193;-75
2022/04/16 05:46:36;;;;;;;0.70;0.70;;;;;;;;;;5054387;28;20730;-75
2022/04/16 05:49:07;;;;;;;0.70;0.70;;;;;;;;;;5053515;28;20512;-75
2022/04/16 05:51:33;;;;;;;0.70;0.63;;;;;;;;;;5072617;28;20205;-74
2022/04/16 05:54:02;;;;;;;0.70;0.70;;;;;;;;;;5075295;28;20187;-76
2022/04/16 05:56:30;;;;;;;0.70;0.60;;;;;;;;;;5075841;28;20181;-76
2022/04/16 05:58:59;;;;;;;0.70;0.60;;;;;;;;;;5073652;28;20174;-77
2022/04/16 06:01:25;;;;;;;0.70;0.70;;;;;;;;;;5075154;28;20177;-74
2022/04/16 06:03:52;;;;;;;0.70;0.60;;;;;;;;;;5076513;28;20230;-74
2022/04/16 06:06:20;;;;;;;0.70;0.60;;;;;;;;;;5075269;28;20279;-74
2022/04/16 06:08:47;;;;;;;0.70;0.60;;;;;;;;;;5075313;28;20612;-77
2022/04/16 06:11:17;;;;;;;0.70;0.60;;;;;;;;;;5076978;28;20666;-75
2022/04/16 06:13:44;;;;;;;0.70;0.60;;;;;;;;;;5077246;28;20220;-74
2022/04/16 06:16:11;;;;;;;0.70;0.60;;;;;;;;;;5069588;28;20226;-74
2022/04/16 06:18:42;;;;;;;0.60;0.60;;;;;;;;;;5056016;28;20648;-75
2022/04/16 06:21:09;;;;;;;0.80;0.80;;;;;;;;;;5056012;28;20453;-74
2022/04/16 06:23:38;;;;;;;1.10;1.03;;;;;;;;;;5054878;28;20856;-74
2022/04/16 06:26:05;;;;;;;1.30;0.90;;;;;;;;;;5073044;28;20471;-74
2022/04/16 06:28:32;;;;;;;0.70;0.70;;;;;;;;;;5083228;28;20548;-76
2022/04/16 06:30:59;;;;;;;0.77;0.77;;;;;;;;;;5096185;28;20448;-75
2022/04/16 06:33:26;;;;;;;0.97;0.97;;;;;;;;;;5064013;28;20474;-76
2022/04/16 06:35:52;;;;;;;0.80;0.80;;;;;;;;;;5055693;28;20448;-77
2022/04/16 06:38:19;;;;;;;0.70;0.70;;;;;;;;;;5055292;28;20805;-76
2022/04/16 06:40:47;;;;;;;0.70;0.60;;;;;;;;;;5054486;28;21003;-76
2022/04/16 06:43:14;;;;;;;1.00;1.00;;;;;;;;;;5053804;28;20863;-76
2022/04/16 06:45:41;;;;;;;0.80;0.80;;;;;;;;;;5054068;28;20517;-75
2022/04/16 06:48:08;;;;;;;0.70;0.70;;;;;;;;;;5053420;28;20535;-75
2022/04/16 06:50:35;;;;;;;0.80;0.73;;;;;;;;;;5074128;28;20848;-76
2022/04/16 06:53:02;;;;;;;0.70;0.60;;;;;;;;;;5075449;28;20419;-76
2022/04/16 06:55:29;;;;;;;0.70;0.60;;;;;;;;;;5057665;28;20454;-75
2022/04/16 06:57:57;;;;;;;0.70;0.60;;;;;;;;;;5075244;28;20435;-74
2022/04/16 07:00:24;;;;;;;0.70;0.60;;;;;;;;;;5075172;28;20461;-75
2022/04/16 07:02:50;;;;;;;0.70;0.60;;;;;;;;;;5073992;28;20438;-77
2022/04/16 07:05:26;;;;;;;0.70;0.70;;;;;;;;;;5072058;28;20447;-76
2022/04/16 07:07:53;;;;;;;1.27;1.17;;;;;;;;;;5066072;28;20512;-75
2022/04/16 07:10:19;;;;;;;0.70;0.70;;;;;;;;;;5076298;28;20467;-74
2022/04/16 07:12:46;;;;;;;0.70;0.60;;;;;;;;;;5074862;28;20424;-79
2022/04/16 07:15:16;;;;;;;1.00;0.90;;;;;;;;;;5075543;28;20429;-80
2022/04/16 07:17:45;;;;;;;1.20;0.90;;;;;;;;;;5070467;28;20443;-79
2022/04/16 07:20:11;;;;;;;0.70;0.60;;;;;;;;;;5076321;28;20531;-79
2022/04/16 07:22:38;;;;;;;0.70;0.70;;;;;;;;;;5061651;28;20467;-79
2022/04/16 07:25:06;;;;;;;1.67;1.27;;;;;;;;;;5053504;28;20492;-78
2022/04/16 07:27:33;;;;;;;0.70;0.70;;;;;;;;;;5054651;28;20454;-78
2022/04/16 07:30:00;;;;;;;0.70;0.60;;;;;;;;;;5052753;28;20468;-78
2022/04/16 07:32:29;;;;;;;1.63;1.53;;;;;;;;;;5053832;28;20437;-77
2022/04/16 07:34:59;;;;;;;0.80;0.77;;;;;;;;;;5053339;28;20498;-78
2022/04/16 07:37:26;;;;;;;0.70;0.70;;;;;;;;;;5036428;28;21044;-76
2022/04/16 07:39:53;;;;;;;0.70;0.70;;;;;;;;;;5055405;28;20529;-77
2022/04/16 07:42:20;;;;;;;0.70;0.60;;;;;;;;;;5055116;28;20415;-73
2022/04/16 07:44:47;;;;;;;5.23;1.00;;;;;;;;;;5057056;28;20425;-75
2022/04/16 07:47:14;;;;;;;2.90;1.20;;;;;;;;;;5070407;28;20452;-76
2022/04/16 07:49:41;;;;;;;0.80;0.70;;;;;;;;;;5072683;28;20461;-72
2022/04/16 07:52:09;;;;;;;0.73;0.70;;;;;;;;;;5072875;28;20998;-76
2022/04/16 07:54:37;;;;;;;0.80;0.70;;;;;;;;;;5076441;28;20426;-76
2022/04/16 07:57:04;;;;;;;1.27;1.03;;;;;;;;;;5073172;28;20541;-76
2022/04/16 07:59:31;;;;;;;0.83;0.83;;;;;;;;;;5072356;28;20467;-75
2022/04/16 08:01:58;;;;;;;7.30;1.80;;;;;;;;;;5072973;28;20535;-76
2022/04/16 08:04:25;;;;;;;6.13;2.33;;;;;;;;;;5073892;28;20908;-75
2022/04/16 08:06:55;;;;;;;1.00;0.90;;;;;;;;;;5073711;28;20430;-77
2022/04/16 08:09:25;;;;;;;1.67;1.47;;;;;;;;;;5052522;28;20463;-77
2022/04/16 08:11:52;;;;;;;0.80;0.70;;;;;;;;;;5050964;28;20447;-76
2022/04/16 08:14:20;;;;;;;1.63;1.20;;;;;;;;;;5066990;28;21220;-80
2022/04/16 08:16:48;;;;;;;0.93;0.80;;;;;;;;;;5062267;28;20496;-79
2022/04/16 08:19:15;;;;;;;1.17;0.90;;;;;;;;;;5069904;28;20483;-75
2022/04/16 08:21:42;;;;;;;2.60;1.80;;;;;;;;;;5071432;28;21053;-76
2022/04/16 08:24:13;;;;;;;1.17;0.93;;;;;;;;;;5071190;28;20493;-77
2022/04/16 08:26:40;;;;;;;2.03;1.80;;;;;;;;;;5075547;28;20423;-76
2022/04/16 08:29:07;;;;;;;1.33;1.20;;;;;;;;;;5074118;28;20522;-78
2022/04/16 08:31:34;;;;;;;1.00;0.90;;;;;;;;;;5069840;28;20427;-77
2022/04/16 08:34:01;;;;;;;0.70;0.70;;;;;;;;;;5066636;28;20443;-77
2022/04/16 08:36:28;;;;;;;1.43;1.03;;;;;;;;;;5072849;28;20471;-78
2022/04/16 08:38:55;;;;;;;0.80;0.80;;;;;;;;;;5073043;28;20437;-76
2022/04/16 08:41:24;;;;;;;1.20;1.10;;;;;;;;;;5071944;28;20478;-77
2022/04/16 08:43:52;;;;;;;0.70;0.63;;;;;;;;;;5073139;28;20414;-79
2022/04/16 08:46:19;;;;;;;0.83;0.77;;;;;;;;;;5073503;28;20521;-79
2022/04/16 08:48:48;;;;;;;0.80;0.77;;;;;;;;;;5063651;28;20454;-78
2022/04/16 08:51:15;;;;;;;0.90;0.80;;;;;;;;;;5051697;28;20516;-78
2022/04/16 08:53:43;;;;;;;0.90;0.90;;;;;;;;;;5052667;28;20906;-80
2022/04/16 08:56:09;;;;;;;0.73;0.70;;;;;;;;;;5051835;28;20432;-76
2022/04/16 08:58:37;;;;;;;0.80;0.80;;;;;;;;;;5052159;28;20976;-78
2022/04/16 09:01:07;;;;;;;1.00;0.90;;;;;;;;;;5053044;28;20405;-80
2022/04/16 09:03:34;;;;;;;0.80;0.80;;;;;;;;;;5052878;28;20829;-78
2022/04/16 09:06:01;;;;;;;0.70;0.60;;;;;;;;;;5053864;28;20471;-80
2022/04/16 09:08:31;;;;;;;1.10;0.80;;;;;;;;;;5055630;28;20440;-79
2022/04/16 09:11:05;;;;;;;0.80;0.70;;;;;;;;;;5067824;28;20862;-79
2022/04/16 09:13:32;;;;;;;3.17;2.00;;;;;;;;;;5065164;28;20447;-79
2022/04/16 09:16:06;;;;;;;0.70;0.50;;;;;;;;;;5070872;28;20490;-79
2022/04/16 09:18:44;;;;;;;0.70;0.60;;;;;;;;;;5072455;28;20192;-78
2022/04/16 09:21:13;;;;;;;0.80;0.67;;;;;;;;;;5069275;28;20551;-79
2022/04/16 09:23:50;;;;;;;0.80;0.60;;;;;;;;;;5053001;28;20998;-78
2022/04/16 09:26:27;;;;;;;1.83;0.90;;;;;;;;;;5064304;28;20449;-77
2022/04/16 09:28:55;;;;;;;1.00;0.80;;;;;;;;;;5071841;28;20442;-79
2022/04/16 09:31:29;;;;;;;0.83;0.83;;;;;;;;;;5070146;28;20454;-79
2022/04/16 09:33:57;;;;;;;1.10;1.00;;;;;;;;;;5068392;28;20451;-79
2022/04/16 09:36:24;;;;;;;0.80;0.70;;;;;;;;;;5075658;28;20447;-80
2022/04/16 09:38:59;;;;;;;0.80;0.60;;;;;;;;;;5064825;28;20463;-79
2022/04/16 09:41:29;;;;;;;0.97;0.87;;;;;;;;;;5074696;28;20472;-80
2022/04/16 09:43:56;;;;;;;0.70;0.60;;;;;;;;;;5056853;28;20459;-79
2022/04/16 09:46:23;;;;;;;0.80;0.70;;;;;;;;;;5074227;28;20955;-80
2022/04/16 09:48:51;;;;;;;0.80;0.60;;;;;;;;;;5084482;28;20434;-79
2022/04/16 09:51:19;;;;;;;0.80;0.70;;;;;;;;;;5075181;28;20475;-79
2022/04/16 09:53:50;;;;;;;0.70;0.60;;;;;;;;;;5075507;28;20447;-78
2022/04/16 09:56:18;;;;;;;1.93;1.23;;;;;;;;;;5076335;28;20385;-80
2022/04/16 09:58:50;;;;;;;1.33;0.80;;;;;;;;;;5073972;28;20513;-79
2022/04/16 10:01:17;;;;;;;0.80;0.70;;;;;;;;;;5061572;28;20409;-80
2022/04/16 10:03:46;;;;;;;0.70;0.60;;;;;;;;;;5073915;28;20398;-79
2022/04/16 10:06:15;;;;;;;0.80;0.70;;;;;;;;;;5076414;28;20425;-79
2022/04/16 10:08:43;;;;;;;0.80;0.70;;;;;;;;;;5072528;28;20397;-77
2022/04/16 10:11:19;;;;;;;0.80;0.60;;;;;;;;;;5075451;28;20437;-78
2022/04/16 10:13:50;;;;;;;0.77;0.60;;;;;;;;;;5075396;28;20933;-78
2022/04/16 10:16:19;;;;;;;0.80;0.60;;;;;;;;;;5071009;28;20443;-79
2022/04/16 10:18:49;;;;;;;0.73;0.60;;;;;;;;;;5075757;28;20496;-80
2022/04/16 10:21:17;;;;;;;0.80;0.70;;;;;;;;;;5077366;28;20465;-79
2022/04/16 10:23:48;;;;;;;0.70;0.60;;;;;;;;;;5069070;28;20970;-78
2022/04/16 10:26:18;;;;;;;0.70;0.60;;;;;;;;;;5054423;28;20444;-79
2022/04/16 10:28:52;;;;;;;0.70;0.60;;;;;;;;;;5054680;28;20806;-78
2022/04/16 10:31:20;;;;;;;0.70;0.60;;;;;;;;;;5056647;28;20459;-79
2022/04/16 10:33:58;;;;;;;0.80;0.70;;;;;;;;;;5074876;28;20423;-82
2022/04/16 10:36:27;;;;;;;0.80;0.70;;;;;;;;;;5076015;28;20504;-78
2022/04/16 10:38:55;;;;;;;0.80;0.70;;;;;;;;;;5074248;28;20541;-80
2022/04/16 10:41:25;;;;;;;0.70;0.60;;;;;;;;;;5074857;28;20431;-79
2022/04/16 10:43:59;;;;;;;0.70;0.57;;;;;;;;;;5074293;28;20475;-77
2022/04/16 10:46:39;;;;;;;0.80;0.60;;;;;;;;;;5074467;28;20819;-78
2022/04/16 10:49:06;;;;;;;0.70;0.60;;;;;;;;;;5059767;28;20448;-78
2022/04/16 10:51:35;;;;;;;0.70;0.60;;;;;;;;;;5075846;28;20476;-80
2022/04/16 10:54:09;;;;;;;0.70;0.60;;;;;;;;;;5057239;28;20428;-80
2022/04/16 10:56:42;;;;;;;0.80;0.60;;;;;;;;;;5075650;28;20461;-81
2022/04/16 10:59:10;;;;;;;0.70;0.63;;;;;;;;;;5074767;28;20931;-78
2022/04/16 11:01:37;;;;;;;0.70;0.60;;;;;;;;;;5075796;28;20503;-78
2022/04/16 11:04:12;;;;;;;0.80;0.73;;;;;;;;;;5071032;28;20459;-77
2022/04/16 11:06:51;;;;;;;0.87;0.80;;;;;;;;;;5074517;28;20454;-79
2022/04/16 11:09:18;;;;;;;1.93;0.80;;;;;;;;;;5070080;28;20438;-79
2022/04/16 11:11:49;;;;;;;0.80;0.60;;;;;;;;;;5075552;28;20806;-78
2022/04/16 11:14:16;;;;;;;0.70;0.60;;;;;;;;;;5076125;28;20411;-76
2022/04/16 11:16:46;;;;;;;0.80;0.70;;;;;;;;;;5058222;28;20919;-79
2022/04/16 11:19:15;;;;;;;0.70;0.53;;;;;;;;;;5073995;28;20418;-78
2022/04/16 11:21:46;;;;;;;0.80;0.70;;;;;;;;;;5068423;28;20458;-78
2022/04/16 11:24:14;;;;;;;0.80;0.67;;;;;;;;;;5074141;28;20463;-79
2022/04/16 11:34:57;;;;;;;0.80;0.77;;;;;;;;;;5074894;28;20418;-80
2022/04/16 11:37:32;;;;;;;0.80;0.73;;;;;;;;;;5055426;28;20479;-80
2022/04/16 11:40:02;;;;;;;0.70;0.60;;;;;;;;;;5075571;28;20516;-79
2022/04/16 11:42:29;;;;;;;0.87;0.83;;;;;;;;;;5073548;28;20415;-79
2022/04/16 11:44:56;;;;;;;0.80;0.70;;;;;;;;;;5070148;28;20456;-78
2022/04/16 11:47:23;;;;;;;0.70;0.60;;;;;;;;;;5054593;28;20455;-77
2022/04/16 11:49:53;;;;;;;0.70;0.60;;;;;;;;;;5072369;28;20493;-78
2022/04/16 11:52:23;;;;;;;0.70;0.70;;;;;;;;;;5072808;28;20482;-79
2022/04/16 11:55:06;;;;;;;0.80;0.60;;;;;;;;;;5085092;28;20440;-79
2022/04/16 11:57:33;;;;;;;0.80;0.60;;;;;;;;;;5095296;28;20411;-78
2022/04/16 12:00:00;;;;;;;0.80;0.70;;;;;;;;;;5071318;28;20455;-78
2022/04/16 12:02:33;;;;;;;0.70;0.70;;;;;;;;;;5055100;28;20459;-79
2022/04/16 12:05:07;;;;;;;0.70;0.60;;;;;;;;;;5053182;28;20436;-78
2022/04/16 12:07:34;;;;;;;0.80;0.70;;;;;;;;;;5054396;28;20440;-78
2022/04/16 12:10:02;;;;;;;0.80;0.70;;;;;;;;;;5041008;28;20447;-79
2022/04/16 12:12:39;;;;;;;0.70;0.60;;;;;;;;;;5072940;28;20425;-79
2022/04/16 12:15:07;;;;;;;0.80;0.70;;;;;;;;;;5071437;28;20414;-78
2022/04/16 12:17:37;;;;;;;0.73;0.70;;;;;;;;;;5053892;28;20407;-76
2022/04/16 12:20:05;;;;;;;0.70;0.60;;;;;;;;;;5058151;28;20476;-78
2022/04/16 12:22:33;;;;;;;0.80;0.70;;;;;;;;;;5052368;28;20525;-78
2022/04/16 12:25:06;;;;;;;0.80;0.70;;;;;;;;;;5058691;28;20500;-81
2022/04/16 12:27:35;;;;;;;0.80;0.70;;;;;;;;;;5093215;28;20446;-78
2022/04/16 12:30:03;;;;;;;0.80;0.70;;;;;;;;;;5092708;28;20411;-79
2022/04/16 12:32:29;;;;;;;0.70;0.60;;;;;;;;;;5083076;28;20468;-78
2022/04/16 12:34:57;;;;;;;1.43;0.97;;;;;;;;;;5072407;28;20382;-78
2022/04/16 12:37:23;;;;;;;0.80;0.70;;;;;;;;;;5072070;28;20477;-79
2022/04/16 12:39:51;;;;;;;0.70;0.67;;;;;;;;;;5073719;28;20995;-78
2022/04/16 12:42:18;;;;;;;0.70;0.60;;;;;;;;;;5072128;28;20441;-78
2022/04/16 12:44:47;;;;;;;0.70;0.70;;;;;;;;;;5074638;28;20416;-79
2022/04/16 12:47:14;;;;;;;0.70;0.60;;;;;;;;;;5074931;28;20815;-79
2022/04/16 12:49:40;;;;;;;0.80;0.70;;;;;;;;;;5054990;28;20436;-78
2022/04/16 12:52:08;;;;;;;0.70;0.70;;;;;;;;;;5056986;28;20528;-78
2022/04/16 12:54:35;;;;;;;0.80;0.67;;;;;;;;;;5072544;28;20408;-78
2022/04/16 12:57:02;;;;;;;0.70;0.60;;;;;;;;;;5073209;28;20913;-78
2022/04/16 12:59:29;;;;;;;0.70;0.63;;;;;;;;;;5056448;28;20443;-78
2022/04/16 13:02:00;;;;;;;0.70;0.60;;;;;;;;;;5065631;28;20462;-79
2022/04/16 13:04:29;;;;;;;0.70;0.60;;;;;;;;;;5074167;28;20955;-78
2022/04/16 13:06:56;;;;;;;0.70;0.60;;;;;;;;;;5077104;28;20538;-78
2022/04/16 13:09:23;;;;;;;0.90;0.80;;;;;;;;;;5060354;28;20439;-80
2022/04/16 13:11:51;;;;;;;0.70;0.60;;;;;;;;;;5077877;28;20497;-78
2022/04/16 13:14:18;;;;;;;1.47;0.80;;;;;;;;;;5078544;28;20842;-78
2022/04/16 13:16:45;;;;;;;0.80;0.70;;;;;;;;;;5076770;28;20419;-78
2022/04/16 13:19:13;;;;;;;0.90;0.77;;;;;;;;;;5077814;28;20415;-77
2022/04/16 13:21:41;;;;;;;0.77;0.70;;;;;;;;;;5069598;28;20944;-77
2022/04/16 13:24:11;;;;;;;0.70;0.70;;;;;;;;;;5064243;28;20442;-77
2022/04/16 13:26:38;;;;;;;0.70;0.60;;;;;;;;;;5079880;28;20434;-77
2022/04/16 13:29:05;;;;;;;0.70;0.60;;;;;;;;;;5097307;28;20436;-76
2022/04/16 13:31:33;;;;;;;1.23;0.80;;;;;;;;;;5079945;28;20473;-76
2022/04/16 13:34:00;;;;;;;0.70;0.60;;;;;;;;;;5097151;28;20771;-79
2022/04/16 13:36:28;;;;;;;0.80;0.70;;;;;;;;;;5096530;28;20449;-78
2022/04/16 13:38:54;;;;;;;0.80;0.63;;;;;;;;;;5061763;28;20459;-77
2022/04/16 13:41:39;;;;;;;0.70;0.60;;;;;;;;;;5057689;28;20455;-78
2022/04/16 13:44:07;;;;;;;0.70;0.60;;;;;;;;;;5058060;28;20426;-78
2022/04/16 13:46:40;;;;;;;0.70;0.60;;;;;;;;;;5071453;28;20439;-78
2022/04/16 13:49:07;;;;;;;0.70;0.60;;;;;;;;;;5080990;28;20438;-77
2022/04/16 13:51:36;;;;;;;0.80;0.60;;;;;;;;;;5076999;28;20492;-78
2022/04/16 13:54:02;;;;;;;0.70;0.60;;;;;;;;;;5076386;28;20924;-78
2022/04/16 13:56:29;;;;;;;0.70;0.60;;;;;;;;;;5076370;28;20799;-77
2022/04/16 13:58:56;;;;;;;24.93;1.47;;;;;;;;;;5075162;28;20981;-76
2022/04/16 14:01:26;;;;;;;0.70;0.60;;;;;;;;;;5074300;28;20427;-77
2022/04/16 14:03:54;;;;;;;0.70;0.60;;;;;;;;;;5076773;28;20961;-77
2022/04/16 14:06:21;;;;;;;0.70;0.60;;;;;;;;;;5075403;28;20455;-77
2022/04/16 14:08:49;;;;;;;0.70;0.60;;;;;;;;;;5058369;28;20966;-78
2022/04/16 14:11:16;;;;;;;0.70;0.60;;;;;;;;;;5076664;28;20491;-78
2022/04/16 14:13:43;;;;;;;0.70;0.60;;;;;;;;;;5057460;28;20962;-78
2022/04/16 14:16:11;;;;;;;0.73;0.67;;;;;;;;;;5070167;28;20448;-77
2022/04/16 14:18:38;;;;;;;0.70;0.50;;;;;;;;;;5054749;28;20431;-77
2022/04/16 14:21:07;;;;;;;0.70;0.60;;;;;;;;;;5072072;28;20469;-76
2022/04/16 14:23:34;;;;;;;0.70;0.60;;;;;;;;;;5074703;28;20561;-76
2022/04/16 14:26:02;;;;;;;0.80;0.70;;;;;;;;;;5076370;28;20475;-77
2022/04/16 14:28:29;;;;;;;0.80;0.70;;;;;;;;;;5074333;28;20463;-77
2022/04/16 14:30:57;;;;;;;1.23;1.13;;;;;;;;;;5074748;28;20461;-77
2022/04/16 14:33:28;;;;;;;0.70;0.60;;;;;;;;;;5061506;28;20945;-77
2022/04/16 14:35:57;;;;;;;0.70;0.60;;;;;;;;;;5055171;28;20467;-78
2022/04/16 14:38:24;;;;;;;0.70;0.60;;;;;;;;;;5056574;28;20435;-78
2022/04/16 14:41:09;;;;;;;0.70;0.60;;;;;;;;;;5055171;28;20462;-77
2022/04/16 14:43:40;;;;;;;0.80;0.70;;;;;;;;;;5055731;28;20613;-76
2022/04/16 14:46:07;;;;;;;0.70;0.60;;;;;;;;;;5056089;28;20923;-77
2022/04/16 14:48:34;;;;;;;0.70;0.67;;;;;;;;;;5071145;28;20772;-78
2022/04/16 14:51:02;;;;;;;0.80;0.73;;;;;;;;;;5072680;28;20459;-77
2022/04/16 14:53:29;;;;;;;1.00;0.93;;;;;;;;;;5074917;28;20443;-78
2022/04/16 14:55:56;;;;;;;0.70;0.60;;;;;;;;;;5056637;28;20440;-78
2022/04/16 14:58:24;;;;;;;0.70;0.60;;;;;;;;;;5074071;28;20786;-78
2022/04/16 15:00:53;;;;;;;0.70;0.60;;;;;;;;;;5054089;28;20488;-79
2022/04/16 15:03:20;;;;;;;0.70;0.60;;;;;;;;;;5055385;28;20470;-79
2022/04/16 15:05:48;;;;;;;0.70;0.60;;;;;;;;;;5056442;28;20509;-78
2022/04/16 15:08:15;;;;;;;0.73;0.70;;;;;;;;;;5054221;28;20951;-80
2022/04/16 15:10:42;;;;;;;0.70;0.60;;;;;;;;;;5054396;28;20412;-78
2022/04/16 15:13:08;;;;;;;0.70;0.63;;;;;;;;;;5055110;28;20810;-77